Bonanza, Kentucky
Current Conditions -  °F | °C
As of 1:55 PM on Monday 20 Oct 2014 (Local Time) from KSJS Reporting Station
Scattered Clouds Scattered Clouds  
Wind Chill: 57°   Ceiling: Unl
Heat Index: 57°   Visibility: 10mi
Dew Point: 47°   Wind: 8mph
Humidity: 69%   Direction: 190°S
Pressure: 29.99"   Gusts: NA
Location:  37.6405°N, 82.8256°W
Report Text: KSJS 201755Z AUTO 19007KT 10SM SCT100 SCT120 14/08 A2999 RMK AO2 T01400084 10141 20049
Loading
Personal Weather Stations






























Interactive Weather Map
Tropical Storm Tracking
New forecast layout! Learn more

10-Day Weather Forecast

Advertisements
Track Severe Weather on mobile